createdAt,value
2018-08-16T00:00:18.219Z,17.70
2018-08-16T00:02:47.615Z,17.70
2018-08-16T00:05:16.437Z,17.80
2018-08-16T00:07:45.912Z,17.80
2018-08-16T00:10:15.651Z,17.80
2018-08-16T00:12:45.428Z,17.70
2018-08-16T00:15:14.917Z,17.60
2018-08-16T00:17:43.450Z,17.40
2018-08-16T00:20:12.248Z,17.40
2018-08-16T00:22:40.877Z,17.50
2018-08-16T00:25:10.459Z,17.50
2018-08-16T00:27:39.142Z,17.50
2018-08-16T00:30:13.959Z,17.50
2018-08-16T00:32:43.052Z,17.30
2018-08-16T00:35:11.588Z,17.20
2018-08-16T00:37:40.346Z,17.20
2018-08-16T00:40:12.437Z,17.20
2018-08-16T00:42:40.969Z,17.30
2018-08-16T00:45:10.331Z,17.30
2018-08-16T00:47:38.892Z,17.30
2018-08-16T00:50:09.145Z,17.30
2018-08-16T00:52:37.715Z,17.20
2018-08-16T00:55:07.108Z,17.10
2018-08-16T00:57:35.997Z,17.10
2018-08-16T01:00:05.450Z,17.10
2018-08-16T01:02:34.702Z,17.20
2018-08-16T01:05:03.245Z,17.20
2018-08-16T01:07:32.365Z,17.00
2018-08-16T01:10:01.274Z,17.00
2018-08-16T01:12:30.725Z,17.00
2018-08-16T01:14:59.322Z,17.00
2018-08-16T01:17:29.228Z,16.90
2018-08-16T01:19:57.770Z,16.90
2018-08-16T01:22:26.321Z,16.90
2018-08-16T01:24:54.789Z,16.80
2018-08-16T01:27:23.372Z,16.70
2018-08-16T01:29:51.974Z,16.50
2018-08-16T01:32:21.353Z,16.50
2018-08-16T01:34:49.897Z,16.50
2018-08-16T01:37:18.353Z,16.60
2018-08-16T01:39:53.293Z,16.40
2018-08-16T01:42:21.787Z,16.30
2018-08-16T01:44:50.328Z,16.30
2018-08-16T01:47:19.886Z,16.30
2018-08-16T01:49:48.476Z,16.30
2018-08-16T01:52:17.240Z,16.30
2018-08-16T01:54:45.930Z,16.30
2018-08-16T01:57:14.478Z,16.30
2018-08-16T01:59:43.122Z,16.30
2018-08-16T02:02:12.025Z,16.30
2018-08-16T02:04:40.669Z,16.40
2018-08-16T02:07:09.144Z,16.40
2018-08-16T02:09:37.847Z,16.20
2018-08-16T02:12:07.069Z,16.20
2018-08-16T02:14:36.185Z,16.20
2018-08-16T02:17:04.727Z,16.30
2018-08-16T02:19:33.569Z,16.20
2018-08-16T02:22:02.103Z,16.20
2018-08-16T02:24:30.974Z,16.20
2018-08-16T02:26:59.608Z,16.20
2018-08-16T02:29:28.078Z,16.20
2018-08-16T02:31:56.464Z,16.10
2018-08-16T02:34:25.655Z,16.00
2018-08-16T02:36:54.057Z,15.80
2018-08-16T02:39:22.528Z,15.60
2018-08-16T02:41:50.959Z,15.70
2018-08-16T02:44:19.702Z,15.70
2018-08-16T02:46:48.229Z,15.70
2018-08-16T02:49:17.213Z,15.70
2018-08-16T02:51:45.641Z,15.70
2018-08-16T02:54:14.184Z,15.70
2018-08-16T02:56:43.090Z,15.70
2018-08-16T02:59:11.609Z,15.80
2018-08-16T03:01:40.056Z,15.80
2018-08-16T03:04:08.781Z,15.80
2018-08-16T03:06:37.815Z,15.80
2018-08-16T03:09:08.409Z,15.80
2018-08-16T03:11:36.840Z,15.80
2018-08-16T03:14:05.369Z,15.80
2018-08-16T03:16:34.081Z,15.80
2018-08-16T03:19:02.581Z,15.70
2018-08-16T03:21:31.054Z,15.60
2018-08-16T03:24:00.917Z,15.50
2018-08-16T03:26:30.079Z,15.40
2018-08-16T03:28:58.479Z,15.50
2018-08-16T03:31:26.912Z,15.40
2018-08-16T03:33:55.340Z,15.30
2018-08-16T03:36:24.196Z,15.20
2018-08-16T03:38:52.659Z,15.20
2018-08-16T03:41:21.134Z,15.20
2018-08-16T03:43:49.645Z,15.20
2018-08-16T03:46:18.142Z,15.20
2018-08-16T03:48:46.672Z,15.20
2018-08-16T03:51:15.239Z,15.20
2018-08-16T03:53:44.681Z,15.20
2018-08-16T03:56:13.475Z,15.30
2018-08-16T03:58:42.246Z,15.30
2018-08-16T04:01:11.176Z,15.40
2018-08-16T04:03:39.711Z,15.30
2018-08-16T04:06:08.574Z,15.30
2018-08-16T04:08:37.149Z,15.20
2018-08-16T04:11:05.842Z,15.20
2018-08-16T04:13:36.108Z,15.20
2018-08-16T04:16:05.630Z,15.20
2018-08-16T04:18:34.231Z,15.30
2018-08-16T04:21:02.980Z,15.30
2018-08-16T04:23:31.592Z,15.30
2018-08-16T04:26:00.109Z,15.30
2018-08-16T04:28:28.694Z,15.30
2018-08-16T04:30:57.150Z,15.40
2018-08-16T04:33:26.325Z,15.40
2018-08-16T04:35:55.401Z,15.40
2018-08-16T04:38:24.144Z,15.50
2018-08-16T04:40:52.790Z,15.60
2018-08-16T04:43:21.862Z,15.60
2018-08-16T04:45:50.532Z,15.50
2018-08-16T04:48:19.094Z,15.50
2018-08-16T04:50:47.467Z,15.50
2018-08-16T04:53:17.173Z,15.50
2018-08-16T04:55:45.706Z,15.60
2018-08-16T04:58:14.833Z,15.60
2018-08-16T05:00:43.431Z,15.70
2018-08-16T05:03:12.121Z,15.90
2018-08-16T05:05:40.705Z,15.90
2018-08-16T05:08:09.322Z,15.90
2018-08-16T05:10:38.069Z,15.80
2018-08-16T05:13:06.489Z,15.80
2018-08-16T05:15:35.162Z,15.90
2018-08-16T05:18:03.648Z,15.90
2018-08-16T05:20:32.100Z,16.00
2018-08-16T05:23:00.520Z,16.00
2018-08-16T05:25:29.040Z,16.00
2018-08-16T05:27:57.481Z,16.10
2018-08-16T05:30:26.061Z,16.20
2018-08-16T05:32:54.846Z,16.20
2018-08-16T05:35:23.375Z,16.40
2018-08-16T05:37:51.969Z,16.40
2018-08-16T05:40:20.639Z,16.40
2018-08-16T05:42:49.103Z,16.50
2018-08-16T05:45:17.681Z,16.70
2018-08-16T05:47:46.267Z,16.70
2018-08-16T05:50:14.758Z,16.70
2018-08-16T05:52:43.381Z,16.80
2018-08-16T05:55:12.428Z,16.80
2018-08-16T05:57:41.292Z,16.90
2018-08-16T06:00:12.997Z,16.80
2018-08-16T06:02:41.900Z,17.00
2018-08-16T06:05:11.686Z,17.20
2018-08-16T06:07:40.263Z,17.40
2018-08-16T06:10:09.674Z,17.50
2018-08-16T06:12:38.134Z,17.70
2018-08-16T06:15:07.766Z,17.70
2018-08-16T06:17:36.361Z,17.80
2018-08-16T06:20:07.182Z,17.90
2018-08-16T06:22:35.634Z,18.10
2018-08-16T06:25:04.722Z,18.20
2018-08-16T06:27:33.404Z,18.20
2018-08-16T06:30:01.987Z,18.30
2018-08-16T06:32:30.454Z,18.50
2018-08-16T06:34:59.520Z,18.60
2018-08-16T06:37:28.101Z,18.60
2018-08-16T06:39:56.563Z,18.80
2018-08-16T06:42:25.194Z,18.90
2018-08-16T06:44:53.786Z,19.10
2018-08-16T06:47:22.478Z,19.20
2018-08-16T06:49:50.975Z,19.30
2018-08-16T06:52:19.597Z,19.50
2018-08-16T06:54:48.161Z,19.60
2018-08-16T06:57:16.836Z,19.70
2018-08-16T06:59:45.601Z,19.80
2018-08-16T07:02:15.250Z,19.90
2018-08-16T07:04:44.044Z,20.10
2018-08-16T07:07:13.162Z,20.10
2018-08-16T07:09:41.809Z,20.30
2018-08-16T07:12:10.687Z,20.40
2018-08-16T07:14:39.290Z,20.50
2018-08-16T07:17:08.617Z,20.70
2018-08-16T07:19:37.343Z,20.80
2018-08-16T07:22:06.063Z,20.90
2018-08-16T07:24:34.713Z,21.00
2018-08-16T07:27:03.099Z,21.10
2018-08-16T07:29:31.646Z,21.20
2018-08-16T07:32:00.170Z,21.40
2018-08-16T07:34:28.732Z,21.60
2018-08-16T07:36:57.341Z,21.80
2018-08-16T07:39:28.599Z,21.90
2018-08-16T07:41:57.735Z,21.90
2018-08-16T07:44:27.029Z,22.10
2018-08-16T07:47:00.977Z,22.40
2018-08-16T07:49:30.239Z,22.70
2018-08-16T07:51:59.228Z,22.90
2018-08-16T07:54:28.078Z,23.00
2018-08-16T07:56:56.889Z,23.20
2018-08-16T07:59:25.337Z,23.40
2018-08-16T08:01:53.949Z,23.70
2018-08-16T08:04:22.958Z,23.70
2018-08-16T08:06:51.700Z,23.70
2018-08-16T08:09:20.659Z,24.00
2018-08-16T08:11:50.414Z,24.10
2018-08-16T08:14:24.971Z,24.40
2018-08-16T08:16:53.991Z,24.70
2018-08-16T08:19:23.321Z,25.20
2018-08-16T08:21:52.256Z,25.50
2018-08-16T08:24:21.464Z,25.50
2018-08-16T08:26:50.352Z,25.50
2018-08-16T08:29:19.174Z,25.80
2018-08-16T08:31:47.762Z,26.20
2018-08-16T08:34:17.452Z,26.80
2018-08-16T08:36:57.351Z,27.00
2018-08-16T08:39:33.229Z,26.70
2018-08-16T08:42:02.343Z,26.50
2018-08-16T08:44:31.041Z,27.10
2018-08-16T08:46:59.652Z,27.50
2018-08-16T08:49:28.309Z,27.90
2018-08-16T08:51:56.798Z,28.00
2018-08-16T08:54:38.955Z,28.30
2018-08-16T08:57:18.768Z,28.60
2018-08-16T08:59:47.472Z,28.80
2018-08-16T09:02:16.201Z,29.10
2018-08-16T09:04:45.029Z,29.60
2018-08-16T09:07:15.361Z,29.70
2018-08-16T09:11:01.169Z,29.70
2018-08-16T09:13:41.353Z,29.70
2018-08-16T09:16:15.069Z,29.40
2018-08-16T09:18:43.727Z,28.70
2018-08-16T09:21:13.005Z,29.10
2018-08-16T09:23:41.546Z,29.60
2018-08-16T09:26:15.349Z,29.90
2018-08-16T09:28:44.296Z,30.10
2018-08-16T09:31:24.697Z,30.40
2018-08-16T09:34:04.590Z,30.60
2018-08-16T09:36:33.029Z,30.90
2018-08-16T09:39:01.569Z,30.80
2018-08-16T09:41:30.332Z,30.90
2018-08-16T09:43:59.631Z,30.90
2018-08-16T09:47:37.051Z,31.10
2018-08-16T09:50:05.717Z,31.20
2018-08-16T09:52:34.829Z,31.30
2018-08-16T09:55:03.597Z,31.50
2018-08-16T09:57:33.052Z,31.70
2018-08-16T10:00:02.409Z,32.00
2018-08-16T10:02:30.938Z,31.90
2018-08-16T10:04:59.407Z,31.00
2018-08-16T10:07:28.024Z,31.30
2018-08-16T10:09:56.610Z,31.70
2018-08-16T10:12:25.177Z,31.80
2018-08-16T10:14:53.653Z,31.90
2018-08-16T10:17:22.731Z,32.10
2018-08-16T10:19:51.343Z,32.00
2018-08-16T10:22:20.051Z,31.80
2018-08-16T10:24:48.956Z,31.70
2018-08-16T10:27:17.495Z,31.40
2018-08-16T10:29:46.153Z,31.20
2018-08-16T10:32:14.799Z,30.80
2018-08-16T10:34:44.173Z,31.10
2018-08-16T10:37:12.983Z,31.30
2018-08-16T10:39:41.443Z,31.10
2018-08-16T10:42:10.077Z,30.60
2018-08-16T10:44:39.001Z,31.00
2018-08-16T10:47:07.446Z,31.20
2018-08-16T10:49:36.152Z,31.30
2018-08-16T10:52:04.726Z,31.60
2018-08-16T10:54:33.318Z,31.60
2018-08-16T10:57:02.387Z,31.00
2018-08-16T10:59:31.173Z,31.40
2018-08-16T11:01:59.816Z,31.60
2018-08-16T11:04:28.337Z,31.40
2018-08-16T11:06:56.931Z,31.70
2018-08-16T11:09:26.018Z,31.70
2018-08-16T11:11:54.507Z,31.90
2018-08-16T11:14:23.607Z,31.80
2018-08-16T11:16:52.243Z,31.30
2018-08-16T11:19:21.666Z,31.40
2018-08-16T11:21:50.461Z,31.70
2018-08-16T11:24:19.027Z,32.10
2018-08-16T11:26:48.121Z,31.80
2018-08-16T11:29:16.781Z,31.90
2018-08-16T11:31:45.764Z,32.00
2018-08-16T11:34:20.588Z,32.40
2018-08-16T11:36:49.021Z,32.20
2018-08-16T11:39:17.566Z,32.00
2018-08-16T11:41:47.002Z,32.10
2018-08-16T11:44:15.721Z,32.10
2018-08-16T11:46:44.204Z,32.20
2018-08-16T11:49:12.808Z,32.50
2018-08-16T11:51:41.792Z,32.60
2018-08-16T11:54:10.764Z,32.60
2018-08-16T11:56:46.392Z,32.50
2018-08-16T11:59:15.498Z,32.70
2018-08-16T12:01:44.221Z,32.40
2018-08-16T12:04:14.445Z,32.20
2018-08-16T12:06:43.762Z,32.20
2018-08-16T12:09:12.927Z,32.50
2018-08-16T12:11:42.037Z,32.00
2018-08-16T12:14:10.621Z,32.40
2018-08-16T12:16:39.328Z,32.60
2018-08-16T12:19:08.212Z,32.60
2018-08-16T12:21:36.765Z,32.60
2018-08-16T12:24:05.490Z,32.70
2018-08-16T12:26:34.684Z,32.40
2018-08-16T12:29:03.770Z,32.50
2018-08-16T12:31:32.169Z,32.60
2018-08-16T12:34:00.826Z,32.90
2018-08-16T12:36:29.614Z,32.90
2018-08-16T12:38:58.611Z,32.80
2018-08-16T12:41:27.842Z,32.80
2018-08-16T12:43:56.643Z,33.10
2018-08-16T12:46:25.291Z,33.10
2018-08-16T12:48:53.719Z,32.90
2018-08-16T12:51:22.447Z,33.10
2018-08-16T12:53:52.268Z,33.00
2018-08-16T12:56:22.127Z,33.00
2018-08-16T12:58:50.696Z,33.10
2018-08-16T13:01:19.649Z,33.10
2018-08-16T13:03:48.470Z,33.00
2018-08-16T13:06:17.020Z,33.10
2018-08-16T13:08:47.497Z,33.20
2018-08-16T13:11:15.871Z,32.20
2018-08-16T13:13:44.733Z,32.40
2018-08-16T13:16:13.886Z,31.60
2018-08-16T13:18:42.388Z,31.50
2018-08-16T13:21:11.168Z,31.10
2018-08-16T13:23:39.795Z,31.00
2018-08-16T13:26:09.017Z,31.40
2018-08-16T13:28:37.574Z,31.30
2018-08-16T13:31:06.181Z,31.10
2018-08-16T13:33:34.705Z,31.30
2018-08-16T13:36:03.311Z,31.50
2018-08-16T13:38:31.737Z,31.50
2018-08-16T13:41:00.397Z,31.50
2018-08-16T13:43:28.947Z,31.70
2018-08-16T13:45:57.774Z,31.90
2018-08-16T13:48:26.591Z,32.10
2018-08-16T13:50:55.225Z,32.10
2018-08-16T13:53:23.774Z,32.20
2018-08-16T13:55:52.466Z,31.80
2018-08-16T13:58:21.158Z,31.70
2018-08-16T14:00:49.758Z,31.70
2018-08-16T14:03:18.427Z,31.60
2018-08-16T14:05:47.281Z,31.10
2018-08-16T14:08:15.869Z,30.80
2018-08-16T14:10:47.513Z,31.20
2018-08-16T14:13:16.687Z,31.60
2018-08-16T14:15:45.535Z,31.60
2018-08-16T14:18:14.929Z,31.30
2018-08-16T14:20:44.080Z,30.90
2018-08-16T14:23:13.358Z,30.90
2018-08-16T14:25:42.624Z,31.20
2018-08-16T14:28:11.110Z,30.80
2018-08-16T14:30:40.344Z,30.70
2018-08-16T14:33:09.142Z,31.00
2018-08-16T14:35:38.551Z,31.20
2018-08-16T14:38:07.358Z,31.30
2018-08-16T14:40:35.864Z,31.40
2018-08-16T14:43:04.487Z,31.30
2018-08-16T14:45:33.492Z,31.20
2018-08-16T14:48:07.321Z,31.20
2018-08-16T14:50:35.936Z,31.30
2018-08-16T14:53:04.520Z,31.30
2018-08-16T14:55:33.142Z,31.30
2018-08-16T14:58:01.822Z,31.20
2018-08-16T15:00:30.321Z,31.30
2018-08-16T15:02:58.851Z,31.20
2018-08-16T15:05:27.398Z,31.10
2018-08-16T15:07:55.832Z,31.20
2018-08-16T15:10:24.445Z,31.20
2018-08-16T15:12:52.951Z,31.10
2018-08-16T15:15:22.132Z,31.00
2018-08-16T15:17:50.631Z,31.00
2018-08-16T15:20:19.165Z,31.10
2018-08-16T15:22:47.830Z,31.10
2018-08-16T15:25:17.222Z,30.80
2018-08-16T15:27:46.068Z,30.90
2018-08-16T15:30:14.823Z,30.90
2018-08-16T15:32:44.527Z,31.00
2018-08-16T15:35:13.159Z,30.90
2018-08-16T15:37:41.584Z,30.90
2018-08-16T15:40:10.256Z,31.00
2018-08-16T15:42:38.845Z,31.00
2018-08-16T15:45:08.121Z,30.90
2018-08-16T15:47:36.660Z,30.70
2018-08-16T15:50:05.197Z,30.70
2018-08-16T15:52:33.735Z,30.70
2018-08-16T15:55:02.192Z,30.70
2018-08-16T15:57:30.605Z,30.70
2018-08-16T15:59:59.206Z,30.80
2018-08-16T16:02:27.789Z,30.80
2018-08-16T16:04:56.293Z,30.70
2018-08-16T16:07:24.760Z,30.80
2018-08-16T16:09:53.433Z,30.70
2018-08-16T16:12:22.479Z,30.70
2018-08-16T16:14:53.935Z,30.70
2018-08-16T16:17:22.447Z,30.60
2018-08-16T16:19:52.015Z,30.50
2018-08-16T16:22:20.542Z,30.40
2018-08-16T16:24:49.174Z,30.10
2018-08-16T16:27:17.719Z,30.00
2018-08-16T16:29:46.195Z,29.80
2018-08-16T16:32:15.537Z,29.80
2018-08-16T16:34:44.020Z,30.00
2018-08-16T16:37:12.520Z,30.10
2018-08-16T16:39:41.032Z,30.10
2018-08-16T16:42:11.311Z,30.20
2018-08-16T16:44:40.510Z,30.10
2018-08-16T16:47:09.628Z,30.10
2018-08-16T16:49:38.635Z,30.00
2018-08-16T16:52:07.868Z,29.80
2018-08-16T16:54:36.393Z,29.70
2018-08-16T16:57:05.657Z,29.60
2018-08-16T16:59:34.278Z,29.60
2018-08-16T17:02:02.870Z,29.50
2018-08-16T17:04:31.522Z,29.50
2018-08-16T17:06:59.986Z,29.40
2018-08-16T17:09:28.585Z,29.40
2018-08-16T17:11:57.205Z,29.40
2018-08-16T17:14:25.713Z,29.20
2018-08-16T17:16:54.228Z,29.20
2018-08-16T17:19:22.779Z,29.10
2018-08-16T17:21:51.260Z,29.00
2018-08-16T17:24:19.737Z,28.90
2018-08-16T17:26:48.232Z,28.90
2018-08-16T17:29:16.678Z,28.90
2018-08-16T17:31:45.398Z,28.80
2018-08-16T17:34:14.003Z,28.70
2018-08-16T17:36:42.576Z,28.60
2018-08-16T17:39:11.163Z,28.60
2018-08-16T17:41:39.903Z,28.60
2018-08-16T17:44:08.951Z,28.50
2018-08-16T17:46:38.124Z,28.40
2018-08-16T17:49:07.442Z,28.40
2018-08-16T17:51:35.986Z,28.20
2018-08-16T17:54:04.495Z,28.10
2018-08-16T17:56:33.051Z,28.00
2018-08-16T17:59:01.673Z,27.90
2018-08-16T18:01:30.595Z,28.00
2018-08-16T18:03:59.134Z,27.90
2018-08-16T18:06:28.201Z,27.80
2018-08-16T18:08:56.812Z,27.70
2018-08-16T18:11:26.080Z,27.60
2018-08-16T18:13:55.981Z,27.40
2018-08-16T18:16:24.462Z,27.30
2018-08-16T18:18:53.868Z,27.20
2018-08-16T18:21:23.421Z,27.20
2018-08-16T18:23:52.028Z,27.10
2018-08-16T18:26:21.601Z,27.00
2018-08-16T18:28:50.206Z,26.90
2018-08-16T18:31:19.408Z,26.80
2018-08-16T18:36:56.796Z,26.70
2018-08-16T18:39:25.183Z,26.50
2018-08-16T18:41:53.682Z,26.40
2018-08-16T18:44:22.242Z,26.40
2018-08-16T18:46:50.705Z,26.30
2018-08-16T18:49:19.287Z,26.30
2018-08-16T18:51:47.856Z,26.20
2018-08-16T18:54:16.406Z,26.00
2018-08-16T18:56:45.363Z,25.90
2018-08-16T18:59:13.866Z,25.80
2018-08-16T19:01:42.377Z,25.70
2018-08-16T19:04:10.929Z,25.60
2018-08-16T19:06:40.257Z,25.60
2018-08-16T19:09:10.561Z,25.60
2018-08-16T19:11:39.805Z,25.30
2018-08-16T19:14:08.285Z,25.20
2018-08-16T19:16:36.741Z,25.20
2018-08-16T19:19:06.631Z,24.90
2018-08-16T19:21:35.838Z,24.70
2018-08-16T19:24:04.426Z,24.60
2018-08-16T19:26:33.059Z,24.60
2018-08-16T19:29:02.136Z,24.70
2018-08-16T19:31:30.661Z,24.30
2018-08-16T19:33:59.207Z,24.20
2018-08-16T19:36:27.725Z,24.20
2018-08-16T19:38:56.209Z,24.20
2018-08-16T19:41:24.772Z,24.20
2018-08-16T19:43:54.081Z,24.10
2018-08-16T19:46:23.374Z,24.00
2018-08-16T19:48:51.954Z,24.00
2018-08-16T19:51:20.549Z,23.90
2018-08-16T19:53:49.010Z,23.90
2018-08-16T19:56:17.501Z,24.00
2018-08-16T19:58:46.551Z,23.90
2018-08-16T20:01:15.288Z,23.90
2018-08-16T20:03:43.625Z,24.00
2018-08-16T20:06:12.138Z,23.80
2018-08-16T20:08:40.639Z,23.70
2018-08-16T20:11:09.666Z,23.60
2018-08-16T20:13:38.217Z,23.40
2018-08-16T20:16:06.941Z,23.30
2018-08-16T20:18:36.516Z,23.20
2018-08-16T20:21:05.629Z,23.10
2018-08-16T20:23:34.100Z,23.10
2018-08-16T20:26:02.671Z,23.10
2018-08-16T20:28:31.221Z,23.00
2018-08-16T20:30:59.895Z,23.10
2018-08-16T20:33:28.497Z,23.00
2018-08-16T20:35:57.055Z,22.90
2018-08-16T20:38:26.644Z,22.90
2018-08-16T20:40:55.377Z,22.80
2018-08-16T20:43:24.653Z,22.80
2018-08-16T20:45:53.878Z,22.70
2018-08-16T20:48:22.485Z,22.70
2018-08-16T20:50:50.930Z,22.70
2018-08-16T20:53:19.922Z,22.70
2018-08-16T20:55:48.423Z,22.70
2018-08-16T20:58:16.977Z,22.40
2018-08-16T21:00:46.185Z,22.20
2018-08-16T21:03:14.653Z,22.20
2018-08-16T21:05:43.764Z,22.30
2018-08-16T21:08:12.222Z,22.00
2018-08-16T21:10:40.768Z,22.00
2018-08-16T21:13:09.643Z,22.10
2018-08-16T21:15:38.217Z,22.20
2018-08-16T21:18:06.921Z,22.20
2018-08-16T21:20:35.382Z,22.20
2018-08-16T21:23:03.952Z,22.10
2018-08-16T21:25:33.691Z,22.00
2018-08-16T21:28:02.353Z,21.80
2018-08-16T21:30:49.760Z,21.80
2018-08-16T21:33:18.229Z,21.70
2018-08-16T21:35:46.683Z,21.60
2018-08-16T21:38:17.998Z,21.60
2018-08-16T21:40:46.519Z,21.70
2018-08-16T21:43:15.009Z,21.50
2018-08-16T21:45:43.568Z,21.40
2018-08-16T21:48:12.617Z,21.40
2018-08-16T21:50:41.373Z,21.40
2018-08-16T21:53:09.859Z,21.40
2018-08-16T21:55:38.304Z,21.50
2018-08-16T21:58:07.314Z,21.40
2018-08-16T22:00:50.206Z,21.40
2018-08-16T22:03:24.060Z,21.40
2018-08-16T22:06:00.244Z,21.30
2018-08-16T22:08:34.286Z,21.00
2018-08-16T22:11:02.753Z,21.00
2018-08-16T22:13:31.366Z,20.90
2018-08-16T22:16:00.509Z,20.90
2018-08-16T22:18:29.101Z,21.00
2018-08-16T22:20:57.517Z,20.90
2018-08-16T22:23:26.078Z,20.90
2018-08-16T22:25:54.510Z,20.90
2018-08-16T22:28:23.052Z,20.90
2018-08-16T22:30:51.550Z,20.80
2018-08-16T22:33:20.598Z,20.80
2018-08-16T22:35:49.032Z,20.70
2018-08-16T22:38:17.656Z,20.70
2018-08-16T22:40:46.298Z,20.70
2018-08-16T22:43:14.782Z,20.60
2018-08-16T22:45:46.737Z,20.70
2018-08-16T22:48:15.194Z,20.60
2018-08-16T22:50:43.856Z,20.60
2018-08-16T22:53:12.982Z,20.60
2018-08-16T22:55:41.529Z,20.60
2018-08-16T22:58:10.078Z,20.50
2018-08-16T23:00:39.121Z,20.50
2018-08-16T23:03:07.601Z,20.50
2018-08-16T23:05:36.939Z,20.50
2018-08-16T23:08:05.882Z,20.40
2018-08-16T23:10:34.357Z,20.40
2018-08-16T23:13:02.846Z,20.30
2018-08-16T23:15:31.502Z,20.30
2018-08-16T23:18:00.073Z,20.30
2018-08-16T23:20:29.151Z,20.20
2018-08-16T23:22:57.591Z,20.10
2018-08-16T23:25:26.724Z,20.00
2018-08-16T23:27:55.222Z,20.00
2018-08-16T23:30:23.761Z,20.00
2018-08-16T23:32:52.192Z,20.00
2018-08-16T23:35:20.673Z,20.00
2018-08-16T23:37:49.225Z,20.00
2018-08-16T23:40:18.260Z,19.90
2018-08-16T23:42:46.681Z,19.90
2018-08-16T23:45:15.337Z,19.90
2018-08-16T23:47:53.965Z,19.90
2018-08-16T23:50:23.125Z,19.80
2018-08-16T23:52:52.217Z,19.80
2018-08-16T23:55:20.658Z,19.80
2018-08-16T23:57:49.178Z,19.80
